createdAt,value
2018-02-27T10:17:11.964Z,64.81
2018-02-27T10:19:40.336Z,64.33
2018-02-27T10:22:08.459Z,64.47
2018-02-27T10:24:36.417Z,63.03
2018-02-27T10:27:04.582Z,62.34
2018-02-27T10:29:32.674Z,62.20
2018-02-27T10:32:00.655Z,61.66
2018-02-27T10:34:28.640Z,61.93
2018-02-27T10:36:56.753Z,61.74
2018-02-27T10:39:24.790Z,61.78
2018-02-27T10:41:53.174Z,61.46
2018-02-27T10:44:21.301Z,58.09
2018-02-27T10:46:49.245Z,59.63
2018-02-27T10:49:17.479Z,60.90
2018-02-27T10:51:45.527Z,61.03
2018-02-27T10:54:13.682Z,61.43
2018-02-27T10:56:41.609Z,61.19
2018-02-27T10:59:09.554Z,60.74
2018-02-27T11:01:37.692Z,60.46
2018-02-27T11:04:05.783Z,59.76
2018-02-27T11:06:34.290Z,59.11
2018-02-27T11:09:02.442Z,58.90
2018-02-27T11:11:30.387Z,58.97
2018-02-27T11:13:58.331Z,59.90
2018-02-27T11:16:26.247Z,57.96
2018-02-27T11:18:54.191Z,57.56
2018-02-27T11:21:23.101Z,59.26
2018-02-27T11:23:51.000Z,57.14
2018-02-27T11:26:19.095Z,58.81
2018-02-27T11:28:47.221Z,58.15
2018-02-27T11:31:15.019Z,58.04
2018-02-27T11:33:42.759Z,57.73
2018-02-27T11:36:10.492Z,59.20
2018-02-27T11:38:39.516Z,58.04
2018-02-27T11:41:07.983Z,58.06
2018-02-27T11:43:35.705Z,57.37
2018-02-27T11:46:03.492Z,57.36
2018-02-27T11:48:31.817Z,57.83
2018-02-27T11:51:00.034Z,57.81
2018-02-27T11:53:27.908Z,58.12
2018-02-27T11:55:55.707Z,58.28
2018-02-27T11:58:23.457Z,57.26
2018-02-27T12:00:51.235Z,58.81
2018-02-27T12:03:19.061Z,57.08
2018-02-27T12:05:47.750Z,56.69
2018-02-27T12:08:15.867Z,56.41
2018-02-27T12:10:44.211Z,59.72
2018-02-27T12:13:12.980Z,58.46
2018-02-27T12:15:40.751Z,58.13
2018-02-27T12:18:08.556Z,58.11
2018-02-27T12:20:36.336Z,59.34
2018-02-27T12:23:04.105Z,57.46
2018-02-27T12:25:33.202Z,57.54
2018-02-27T12:28:00.984Z,57.99
2018-02-27T12:30:28.694Z,56.38
2018-02-27T12:32:56.414Z,56.06
2018-02-27T12:35:24.181Z,55.58
2018-02-27T12:37:51.919Z,53.92
2018-02-27T12:40:19.741Z,55.43
2018-02-27T12:42:47.446Z,54.24
2018-02-27T12:45:15.289Z,56.62
2018-02-27T12:47:43.074Z,54.90
2018-02-27T12:50:10.920Z,56.10
2018-02-27T12:52:38.670Z,56.55
2018-02-27T12:55:07.460Z,55.87
2018-02-27T12:57:35.669Z,56.78
2018-02-27T13:00:04.031Z,57.40
2018-02-27T13:02:32.271Z,57.10
2018-02-27T13:05:00.478Z,58.19
2018-02-27T13:07:29.217Z,57.54
2018-02-27T13:09:57.272Z,57.63
2018-02-27T13:12:25.410Z,56.95
2018-02-27T13:14:53.578Z,55.81
2018-02-27T13:17:21.540Z,53.73
2018-02-27T13:19:50.335Z,57.06
2018-02-27T13:22:18.179Z,57.84
2018-02-27T13:24:46.294Z,57.38
2018-02-27T13:27:14.259Z,58.53
2018-02-27T13:29:42.860Z,57.86
2018-02-27T13:32:10.914Z,57.32
2018-02-27T13:34:39.216Z,57.33
2018-02-27T13:37:07.367Z,57.08
2018-02-27T13:39:35.436Z,56.74
2018-02-27T13:42:03.304Z,59.22
2018-02-27T13:44:31.107Z,58.96
2018-02-27T13:46:59.860Z,60.33
2018-02-27T13:49:29.571Z,58.97
2018-02-27T13:51:57.988Z,60.71
2018-02-27T13:54:27.620Z,61.07
2018-02-27T13:56:55.627Z,60.28
2018-02-27T13:59:23.632Z,59.40
2018-02-27T14:01:52.220Z,58.76
2018-02-27T14:04:20.236Z,60.21
2018-02-27T14:06:48.233Z,61.47
2018-02-27T14:09:16.192Z,61.11
2018-02-27T14:11:44.336Z,59.52
2018-02-27T14:14:12.657Z,60.99
2018-02-27T14:16:40.697Z,60.22
2018-02-27T14:19:10.644Z,61.66
2018-02-27T14:21:38.929Z,61.59
2018-02-27T14:24:07.256Z,61.84
2018-02-27T14:26:35.543Z,60.59
2018-02-27T14:29:04.249Z,63.66
2018-02-27T14:31:32.368Z,61.46
2018-02-27T14:34:00.384Z,62.26
2018-02-27T14:36:28.283Z,62.55
2018-02-27T14:38:56.423Z,63.66
2018-02-27T14:41:24.332Z,64.89
2018-02-27T14:43:52.116Z,64.03
2018-02-27T14:46:21.379Z,63.43
2018-02-27T14:48:49.216Z,63.58
2018-02-27T14:51:17.003Z,63.43
2018-02-27T14:53:44.799Z,63.13
2018-02-27T14:56:12.594Z,61.33
2018-02-27T14:58:40.779Z,61.87
2018-02-27T15:01:08.810Z,63.54
2018-02-27T15:03:38.210Z,62.00
2018-02-27T15:06:06.903Z,62.14
2018-02-27T15:08:34.751Z,62.86
2018-02-27T15:11:02.484Z,64.20
2018-02-27T15:13:31.346Z,63.39
2018-02-27T15:15:59.129Z,63.71
2018-02-27T15:18:26.841Z,63.77
2018-02-27T15:20:54.661Z,63.44
2018-02-27T15:23:22.575Z,63.04
2018-02-27T15:25:52.298Z,63.57
2018-02-27T15:28:20.049Z,65.77
2018-02-27T15:30:48.093Z,65.96
2018-02-27T15:33:16.530Z,66.04
2018-02-27T15:35:44.396Z,65.41
2018-02-27T15:38:12.115Z,66.23
2018-02-27T15:40:39.829Z,66.93
2018-02-27T15:43:07.619Z,67.05
2018-02-27T15:45:35.395Z,67.25
2018-02-27T15:48:03.286Z,66.97
2018-02-27T15:50:30.982Z,67.44
2018-02-27T15:52:58.762Z,65.78
2018-02-27T15:55:27.673Z,67.00
2018-02-27T15:57:55.621Z,66.11
2018-02-27T16:00:23.415Z,65.90
2018-02-27T16:02:51.286Z,65.61
2018-02-27T16:05:19.093Z,62.58
2018-02-27T16:07:46.895Z,64.66
2018-02-27T16:10:14.670Z,64.12
2018-02-27T16:12:42.438Z,63.83
2018-02-27T16:15:10.202Z,63.43
2018-02-27T16:17:37.980Z,64.18
2018-02-27T16:20:05.708Z,65.40
2018-02-27T16:22:33.484Z,64.53
2018-02-27T16:25:01.185Z,64.75
2018-02-27T16:27:28.935Z,64.78
2018-02-27T16:29:56.637Z,65.44
2018-02-27T16:32:24.399Z,65.27
2018-02-27T16:34:52.160Z,65.08
2018-02-27T16:37:19.925Z,65.13
2018-02-27T16:39:47.882Z,65.40
2018-02-27T16:42:15.704Z,65.53
2018-02-27T16:44:43.407Z,64.86
2018-02-27T16:47:11.201Z,65.50
2018-02-27T16:49:39.033Z,65.67
2018-02-27T16:52:06.884Z,65.62
2018-02-27T16:54:34.859Z,65.71
2018-02-27T16:57:02.649Z,66.45
2018-02-27T16:59:30.405Z,66.87
2018-02-27T17:01:58.427Z,66.80
2018-02-27T17:04:26.156Z,67.07
2018-02-27T17:06:54.044Z,66.04
2018-02-27T17:09:22.235Z,66.16
2018-02-27T17:11:50.079Z,66.74
2018-02-27T17:14:17.818Z,67.56
2018-02-27T17:16:45.618Z,66.90
2018-02-27T17:19:13.426Z,66.28
2018-02-27T17:21:41.300Z,64.86
2018-02-27T17:24:09.166Z,65.84
2018-02-27T17:26:37.004Z,66.17
2018-02-27T17:29:04.827Z,65.14
2018-02-27T17:31:32.628Z,64.92
2018-02-27T17:34:01.113Z,64.29
2018-02-27T17:36:28.895Z,65.79
2018-02-27T17:38:57.738Z,67.08
2018-02-27T17:41:25.603Z,67.77
2018-02-27T17:43:56.381Z,65.89
2018-02-27T17:46:25.423Z,66.35
2018-02-27T17:48:54.706Z,68.15
2018-02-27T17:51:22.455Z,68.25
2018-02-27T17:53:50.733Z,68.73
2018-02-27T17:56:18.604Z,68.33
2018-02-27T17:58:47.244Z,69.55
2018-02-27T18:01:15.036Z,69.82
2018-02-27T18:03:42.775Z,70.06
2018-02-27T18:06:11.976Z,70.68
2018-02-27T18:08:40.202Z,70.62
2018-02-27T18:11:08.129Z,69.78
2018-02-27T18:13:35.913Z,68.24
2018-02-27T18:16:03.615Z,67.67
2018-02-27T18:18:32.494Z,67.49
2018-02-27T18:21:00.212Z,67.80
2018-02-27T18:23:28.220Z,69.04
2018-02-27T18:25:56.355Z,69.26
2018-02-27T18:28:24.064Z,69.94
2018-02-27T18:30:52.028Z,69.93
2018-02-27T18:33:19.807Z,70.70
2018-02-27T18:35:47.558Z,70.98
2018-02-27T18:38:15.334Z,71.41
2018-02-27T18:40:43.211Z,71.38
2018-02-27T18:43:10.928Z,71.44
2018-02-27T18:45:38.665Z,71.61
2018-02-27T18:48:06.531Z,71.72
2018-02-27T18:50:35.431Z,71.54
2018-02-27T18:53:03.429Z,71.73
2018-02-27T18:55:32.439Z,71.33
2018-02-27T18:58:01.360Z,71.14
2018-02-27T19:00:29.294Z,70.90
2018-02-27T19:02:57.174Z,70.60
2018-02-27T19:05:25.295Z,71.07
2018-02-27T19:07:55.781Z,71.08
2018-02-27T19:10:24.510Z,70.98
2018-02-27T19:12:52.425Z,71.39
2018-02-27T19:15:20.736Z,71.38
2018-02-27T19:17:49.708Z,71.76
2018-02-27T19:20:17.568Z,71.65
2018-02-27T19:22:45.432Z,71.58
2018-02-27T19:25:13.588Z,71.23
2018-02-27T19:27:41.523Z,71.48
2018-02-27T19:30:09.526Z,72.81
2018-02-27T19:32:37.511Z,72.18
2018-02-27T19:35:05.566Z,72.05
2018-02-27T19:37:33.640Z,71.82
2018-02-27T19:40:01.624Z,71.56
2018-02-27T19:42:31.466Z,71.84
2018-02-27T19:44:59.374Z,71.42
2018-02-27T19:47:28.004Z,70.31
2018-02-27T19:49:56.536Z,70.67
2018-02-27T19:52:24.788Z,70.88
2018-02-27T19:54:53.242Z,71.07
2018-02-27T19:57:21.585Z,71.65
2018-02-27T19:59:50.141Z,71.40
2018-02-27T20:02:19.057Z,70.82
2018-02-27T20:04:47.914Z,69.82
2018-02-27T20:07:16.269Z,69.81
2018-02-27T20:09:44.444Z,71.27
2018-02-27T20:12:14.714Z,71.76
2018-02-27T20:14:44.891Z,71.55
2018-02-27T20:17:15.193Z,71.70
2018-02-27T20:19:43.573Z,72.31
2018-02-27T20:22:13.100Z,72.28
2018-02-27T20:24:42.602Z,72.52
2018-02-27T20:27:11.170Z,72.46
2018-02-27T20:29:39.313Z,72.06
2018-02-27T20:32:08.592Z,72.03
2018-02-27T20:34:37.623Z,71.69
2018-02-27T20:37:06.151Z,72.02
2018-02-27T20:39:34.288Z,72.44
2018-02-27T20:42:03.532Z,72.40
2018-02-27T20:44:31.662Z,72.52
2018-02-27T20:46:59.535Z,72.70
2018-02-27T20:49:27.669Z,72.84
2018-02-27T20:51:56.857Z,73.20
2018-02-27T20:54:25.539Z,72.75
2018-02-27T20:56:53.300Z,72.11
2018-02-27T20:59:21.176Z,71.78
2018-02-27T21:01:49.072Z,72.22
2018-02-27T21:04:18.367Z,72.14
2018-02-27T21:06:46.203Z,72.13
2018-02-27T21:09:14.025Z,72.38
2018-02-27T21:11:41.744Z,72.12
2018-02-27T21:14:09.668Z,72.50
2018-02-27T21:16:38.487Z,72.91
2018-02-27T21:19:06.416Z,72.80
2018-02-27T21:21:34.104Z,73.11
2018-02-27T21:24:01.888Z,73.11
2018-02-27T21:26:29.631Z,73.79
2018-02-27T21:28:58.445Z,74.57
2018-02-27T21:31:27.619Z,74.42
2018-02-27T21:33:55.936Z,74.47
2018-02-27T21:36:23.749Z,76.81
2018-02-27T21:38:51.572Z,73.38
2018-02-27T21:41:19.344Z,72.51
2018-02-27T21:43:47.460Z,73.01
2018-02-27T21:46:15.661Z,72.56
2018-02-27T21:48:43.426Z,72.46
2018-02-27T21:51:11.194Z,72.54
2018-02-27T21:53:40.250Z,72.71
2018-02-27T21:56:09.223Z,72.80
2018-02-27T21:58:37.058Z,72.74
2018-02-27T22:01:05.675Z,72.68
2018-02-27T22:03:33.525Z,72.79
2018-02-27T22:06:01.363Z,73.07
2018-02-27T22:08:30.191Z,73.31
2018-02-27T22:10:57.988Z,73.35
2018-02-27T22:13:25.766Z,73.46
2018-02-27T22:15:54.648Z,73.40
2018-02-27T22:18:22.547Z,73.73
2018-02-27T22:20:50.960Z,73.25
2018-02-27T22:23:19.032Z,72.70
2018-02-27T22:25:47.858Z,73.18
2018-02-27T22:28:16.724Z,73.23
2018-02-27T22:30:44.778Z,73.17
2018-02-27T22:33:12.867Z,73.14
2018-02-27T22:35:41.135Z,73.35
2018-02-27T22:38:09.901Z,73.49
2018-02-27T22:40:37.796Z,72.97
2018-02-27T22:43:06.414Z,72.83
2018-02-27T22:45:34.626Z,73.36
2018-02-27T22:48:02.534Z,73.08
2018-02-27T22:50:30.604Z,73.26
2018-02-27T22:52:58.780Z,72.65
2018-02-27T22:55:26.667Z,72.43
2018-02-27T22:57:54.731Z,72.34
2018-02-27T23:00:35.173Z,71.27
2018-02-27T23:03:04.168Z,71.09
2018-02-27T23:05:32.111Z,72.17
2018-02-27T23:08:00.107Z,72.81
2018-02-27T23:10:28.177Z,72.65
2018-02-27T23:12:56.095Z,71.98
2018-02-27T23:15:26.720Z,72.47
2018-02-27T23:17:54.742Z,72.79
2018-02-27T23:20:22.831Z,72.54
2018-02-27T23:22:51.002Z,72.83
2018-02-27T23:25:38.144Z,72.72
2018-02-27T23:28:15.538Z,72.90
2018-02-27T23:30:45.096Z,73.21
2018-02-27T23:33:14.661Z,72.53
2018-02-27T23:35:43.308Z,72.48
2018-02-27T23:38:11.074Z,72.29
2018-02-27T23:40:38.824Z,72.49
2018-02-27T23:43:06.535Z,72.57
2018-02-27T23:45:34.240Z,72.48
2018-02-27T23:48:01.989Z,72.48
2018-02-27T23:50:29.737Z,72.23
2018-02-27T23:52:57.582Z,71.91
2018-02-27T23:55:25.248Z,71.70
2018-02-27T23:57:54.101Z,71.80
